sensor_id;sensor_type;location;lat;lon;timestamp;P1;durP1;ratioP1;P2;durP2;ratioP2
44446;SDS011;30152;52.066;5.358;2023-04-08T06:53:11;33.55;;;19.63;;
44446;SDS011;30152;52.066;5.358;2023-04-08T06:55:37;31.42;;;19.15;;
44446;SDS011;30152;52.066;5.358;2023-04-08T06:58:03;31.63;;;19.73;;
44446;SDS011;30152;52.066;5.358;2023-04-08T07:00:29;30.67;;;18.73;;
44446;SDS011;30152;52.066;5.358;2023-04-08T07:02:55;28.10;;;17.15;;
44446;SDS011;30152;52.066;5.358;2023-04-08T07:05:21;30.13;;;18.40;;
44446;SDS011;30152;52.066;5.358;2023-04-08T07:07:47;30.80;;;17.85;;
44446;SDS011;30152;52.066;5.358;2023-04-08T07:10:13;30.42;;;17.70;;
44446;SDS011;30152;52.066;5.358;2023-04-08T07:12:39;38.67;;;19.85;;
44446;SDS011;30152;52.066;5.358;2023-04-08T07:15:05;33.78;;;17.67;;
44446;SDS011;30152;52.066;5.358;2023-04-08T07:17:31;28.35;;;16.73;;
44446;SDS011;30152;52.066;5.358;2023-04-08T07:19:58;28.52;;;16.50;;
44446;SDS011;30152;52.066;5.358;2023-04-08T07:22:23;28.92;;;16.55;;
44446;SDS011;30152;52.066;5.358;2023-04-08T07:24:50;29.30;;;17.35;;
44446;SDS011;30152;52.066;5.358;2023-04-08T07:27:16;28.52;;;17.05;;
44446;SDS011;30152;52.066;5.358;2023-04-08T07:29:42;26.67;;;17.05;;
44446;SDS011;30152;52.066;5.358;2023-04-08T07:32:07;29.42;;;16.88;;
44446;SDS011;30152;52.066;5.358;2023-04-08T07:34:34;34.30;;;19.08;;
44446;SDS011;30152;52.066;5.358;2023-04-08T07:37:00;32.25;;;20.02;;
44446;SDS011;30152;52.066;5.358;2023-04-08T07:39:26;32.53;;;18.50;;
44446;SDS011;30152;52.066;5.358;2023-04-08T07:41:52;29.77;;;18.75;;
44446;SDS011;30152;52.066;5.358;2023-04-08T07:44:18;33.00;;;20.27;;
44446;SDS011;30152;52.066;5.358;2023-04-08T07:46:44;29.35;;;18.08;;
44446;SDS011;30152;52.066;5.358;2023-04-08T07:49:14;28.23;;;16.45;;
44446;SDS011;30152;52.066;5.358;2023-04-08T07:51:40;24.05;;;14.43;;
44446;SDS011;30152;52.066;5.358;2023-04-08T07:54:07;26.50;;;14.32;;
44446;SDS011;30152;52.066;5.358;2023-04-08T07:56:35;24.25;;;15.25;;
44446;SDS011;30152;52.066;5.358;2023-04-08T07:59:04;26.30;;;15.45;;
44446;SDS011;30152;52.066;5.358;2023-04-08T08:01:30;22.50;;;14.23;;
44446;SDS011;30152;52.066;5.358;2023-04-08T08:03:58;27.30;;;15.30;;
44446;SDS011;30152;52.066;5.358;2023-04-08T08:06:25;24.30;;;14.55;;
44446;SDS011;30152;52.066;5.358;2023-04-08T08:08:51;24.17;;;14.32;;
44446;SDS011;30152;52.066;5.358;2023-04-08T08:11:17;22.30;;;14.23;;
44446;SDS011;30152;52.066;5.358;2023-04-08T08:13:43;24.08;;;14.75;;
44446;SDS011;30152;52.066;5.358;2023-04-08T08:16:09;22.17;;;13.75;;
44446;SDS011;30152;52.066;5.358;2023-04-08T08:18:36;21.85;;;13.35;;
44446;SDS011;30152;52.066;5.358;2023-04-08T08:21:03;24.13;;;14.18;;
44446;SDS011;30152;52.066;5.358;2023-04-08T08:23:29;19.05;;;12.70;;
44446;SDS011;30152;52.066;5.358;2023-04-08T08:25:59;19.95;;;12.30;;
44446;SDS011;30152;52.066;5.358;2023-04-08T08:28:25;18.15;;;11.35;;
44446;SDS011;30152;52.066;5.358;2023-04-08T08:30:51;20.77;;;11.27;;
44446;SDS011;30152;52.066;5.358;2023-04-08T08:33:17;19.10;;;11.77;;
44446;SDS011;30152;52.066;5.358;2023-04-08T08:35:43;19.00;;;12.20;;
44446;SDS011;30152;52.066;5.358;2023-04-08T08:38:09;18.38;;;10.98;;
44446;SDS011;30152;52.066;5.358;2023-04-08T08:40:36;20.42;;;12.38;;
44446;SDS011;30152;52.066;5.358;2023-04-08T08:43:02;17.80;;;11.98;;
44446;SDS011;30152;52.066;5.358;2023-04-08T08:45:28;18.95;;;11.98;;
44446;SDS011;30152;52.066;5.358;2023-04-08T08:47:55;23.52;;;12.40;;
44446;SDS011;30152;52.066;5.358;2023-04-08T08:50:21;19.75;;;11.65;;
44446;SDS011;30152;52.066;5.358;2023-04-08T08:52:50;19.63;;;12.13;;
44446;SDS011;30152;52.066;5.358;2023-04-08T08:55:17;20.95;;;11.80;;
44446;SDS011;30152;52.066;5.358;2023-04-08T08:57:43;19.13;;;11.23;;
44446;SDS011;30152;52.066;5.358;2023-04-08T09:00:10;17.75;;;11.50;;
44446;SDS011;30152;52.066;5.358;2023-04-08T09:02:37;19.48;;;11.93;;
44446;SDS011;30152;52.066;5.358;2023-04-08T09:05:03;17.15;;;11.32;;
44446;SDS011;30152;52.066;5.358;2023-04-08T09:07:30;20.35;;;11.95;;
44446;SDS011;30152;52.066;5.358;2023-04-08T09:09:59;19.23;;;12.60;;
44446;SDS011;30152;52.066;5.358;2023-04-08T09:12:25;19.33;;;11.27;;
44446;SDS011;30152;52.066;5.358;2023-04-08T09:15:08;19.83;;;11.43;;
44446;SDS011;30152;52.066;5.358;2023-04-08T09:17:35;16.20;;;10.75;;
44446;SDS011;30152;52.066;5.358;2023-04-08T09:20:08;22.40;;;11.55;;
44446;SDS011;30152;52.066;5.358;2023-04-08T09:27:49;18.63;;;11.38;;
44446;SDS011;30152;52.066;5.358;2023-04-08T09:30:17;17.33;;;10.10;;
44446;SDS011;30152;52.066;5.358;2023-04-08T09:32:48;17.20;;;10.90;;
44446;SDS011;30152;52.066;5.358;2023-04-08T09:35:15;17.15;;;10.65;;
44446;SDS011;30152;52.066;5.358;2023-04-08T09:37:41;19.77;;;11.05;;
44446;SDS011;30152;52.066;5.358;2023-04-08T09:40:07;17.58;;;10.57;;
44446;SDS011;30152;52.066;5.358;2023-04-08T09:42:33;19.27;;;11.60;;
44446;SDS011;30152;52.066;5.358;2023-04-08T09:45:01;20.17;;;11.55;;
44446;SDS011;30152;52.066;5.358;2023-04-08T09:47:28;17.42;;;11.10;;
44446;SDS011;30152;52.066;5.358;2023-04-08T09:49:57;18.52;;;10.88;;
44446;SDS011;30152;52.066;5.358;2023-04-08T09:53:29;21.35;;;10.85;;
44446;SDS011;30152;52.066;5.358;2023-04-08T09:55:23;17.52;;;10.65;;
44446;SDS011;30152;52.066;5.358;2023-04-08T09:57:53;16.30;;;10.90;;
44446;SDS011;30152;52.066;5.358;2023-04-08T10:00:21;18.10;;;11.63;;
44446;SDS011;30152;52.066;5.358;2023-04-08T10:03:00;18.65;;;11.02;;
44446;SDS011;30152;52.066;5.358;2023-04-08T10:05:27;17.67;;;10.82;;
44446;SDS011;30152;52.066;5.358;2023-04-08T10:07:57;18.20;;;10.70;;
44446;SDS011;30152;52.066;5.358;2023-04-08T10:10:23;16.58;;;9.63;;
44446;SDS011;30152;52.066;5.358;2023-04-08T10:12:50;17.90;;;9.45;;
44446;SDS011;30152;52.066;5.358;2023-04-08T10:15:29;15.80;;;9.75;;
44446;SDS011;30152;52.066;5.358;2023-04-08T10:18:28;15.77;;;9.52;;
44446;SDS011;30152;52.066;5.358;2023-04-08T10:20:43;14.73;;;8.98;;
44446;SDS011;30152;52.066;5.358;2023-04-08T10:23:13;17.45;;;9.88;;
44446;SDS011;30152;52.066;5.358;2023-04-08T10:25:46;17.02;;;10.23;;
44446;SDS011;30152;52.066;5.358;2023-04-08T10:30:52;19.77;;;10.00;;
44446;SDS011;30152;52.066;5.358;2023-04-08T10:33:22;14.48;;;9.18;;
44446;SDS011;30152;52.066;5.358;2023-04-08T10:35:59;18.02;;;9.80;;
44446;SDS011;30152;52.066;5.358;2023-04-08T10:38:26;15.68;;;9.68;;
44446;SDS011;30152;52.066;5.358;2023-04-08T10:40:53;16.00;;;9.57;;
44446;SDS011;30152;52.066;5.358;2023-04-08T10:43:19;18.08;;;9.93;;
44446;SDS011;30152;52.066;5.358;2023-04-08T10:45:45;18.10;;;9.10;;
44446;SDS011;30152;52.066;5.358;2023-04-08T10:50:41;17.63;;;9.38;;
44446;SDS011;30152;52.066;5.358;2023-04-08T10:53:08;16.42;;;9.88;;
44446;SDS011;30152;52.066;5.358;2023-04-08T10:55:35;17.35;;;10.55;;
44446;SDS011;30152;52.066;5.358;2023-04-08T10:58:04;16.60;;;10.30;;
44446;SDS011;30152;52.066;5.358;2023-04-08T11:00:34;16.77;;;9.52;;
44446;SDS011;30152;52.066;5.358;2023-04-08T11:03:05;17.92;;;9.65;;
44446;SDS011;30152;52.066;5.358;2023-04-08T11:05:32;18.63;;;9.40;;
44446;SDS011;30152;52.066;5.358;2023-04-08T11:07:58;16.77;;;8.65;;
44446;SDS011;30152;52.066;5.358;2023-04-08T11:10:25;14.65;;;8.73;;
44446;SDS011;30152;52.066;5.358;2023-04-08T11:12:52;19.08;;;9.77;;
44446;SDS011;30152;52.066;5.358;2023-04-08T11:15:18;15.65;;;8.88;;
44446;SDS011;30152;52.066;5.358;2023-04-08T11:17:45;15.77;;;8.38;;
44446;SDS011;30152;52.066;5.358;2023-04-08T11:20:12;16.05;;;8.70;;
44446;SDS011;30152;52.066;5.358;2023-04-08T11:22:38;16.80;;;8.77;;
44446;SDS011;30152;52.066;5.358;2023-04-08T11:25:04;14.05;;;7.88;;
44446;SDS011;30152;52.066;5.358;2023-04-08T11:27:32;14.07;;;8.50;;
44446;SDS011;30152;52.066;5.358;2023-04-08T11:29:59;15.00;;;7.75;;
44446;SDS011;30152;52.066;5.358;2023-04-08T11:32:26;15.20;;;8.65;;
44446;SDS011;30152;52.066;5.358;2023-04-08T11:34:53;16.45;;;8.10;;
44446;SDS011;30152;52.066;5.358;2023-04-08T11:37:19;15.27;;;8.30;;
44446;SDS011;30152;52.066;5.358;2023-04-08T11:39:45;15.52;;;8.27;;
44446;SDS011;30152;52.066;5.358;2023-04-08T11:42:30;17.17;;;8.57;;
44446;SDS011;30152;52.066;5.358;2023-04-08T11:44:57;14.05;;;7.68;;
44446;SDS011;30152;52.066;5.358;2023-04-08T11:47:29;17.70;;;7.97;;
44446;SDS011;30152;52.066;5.358;2023-04-08T11:49:56;13.93;;;6.87;;
44446;SDS011;30152;52.066;5.358;2023-04-08T11:52:22;16.80;;;8.02;;
44446;SDS011;30152;52.066;5.358;2023-04-08T11:54:48;17.35;;;8.20;;
44446;SDS011;30152;52.066;5.358;2023-04-08T11:57:14;15.20;;;7.88;;
44446;SDS011;30152;52.066;5.358;2023-04-08T11:59:53;19.75;;;8.20;;
44446;SDS011;30152;52.066;5.358;2023-04-08T12:02:18;15.02;;;7.43;;
44446;SDS011;30152;52.066;5.358;2023-04-08T12:04:44;16.30;;;8.25;;
44446;SDS011;30152;52.066;5.358;2023-04-08T12:07:10;17.05;;;8.68;;
44446;SDS011;30152;52.066;5.358;2023-04-08T12:09:37;18.25;;;8.18;;
44446;SDS011;30152;52.066;5.358;2023-04-08T12:12:02;18.90;;;7.60;;
44446;SDS011;30152;52.066;5.358;2023-04-08T12:14:28;13.65;;;6.45;;
44446;SDS011;30152;52.066;5.358;2023-04-08T12:16:54;13.80;;;6.85;;
44446;SDS011;30152;52.066;5.358;2023-04-08T12:19:20;17.20;;;7.70;;
44446;SDS011;30152;52.066;5.358;2023-04-08T12:21:46;19.23;;;8.38;;
44446;SDS011;30152;52.066;5.358;2023-04-08T12:24:12;14.73;;;7.20;;
44446;SDS011;30152;52.066;5.358;2023-04-08T12:26:38;14.05;;;7.22;;
44446;SDS011;30152;52.066;5.358;2023-04-08T12:29:04;16.70;;;7.35;;
44446;SDS011;30152;52.066;5.358;2023-04-08T12:31:30;16.30;;;7.05;;
44446;SDS011;30152;52.066;5.358;2023-04-08T12:33:56;16.90;;;7.45;;
44446;SDS011;30152;52.066;5.358;2023-04-08T12:36:22;15.55;;;6.75;;
44446;SDS011;30152;52.066;5.358;2023-04-08T12:38:48;14.27;;;6.43;;
44446;SDS011;30152;52.066;5.358;2023-04-08T12:41:14;11.85;;;5.95;;
44446;SDS011;30152;52.066;5.358;2023-04-08T12:43:40;15.77;;;7.10;;
44446;SDS011;30152;52.066;5.358;2023-04-08T12:46:06;14.95;;;6.53;;
44446;SDS011;30152;52.066;5.358;2023-04-08T12:48:32;13.98;;;6.38;;
44446;SDS011;30152;52.066;5.358;2023-04-08T12:50:58;13.48;;;6.88;;
44446;SDS011;30152;52.066;5.358;2023-04-08T12:53:24;14.05;;;6.63;;
44446;SDS011;30152;52.066;5.358;2023-04-08T12:55:50;14.05;;;6.18;;
44446;SDS011;30152;52.066;5.358;2023-04-08T12:58:19;12.10;;;6.53;;
44446;SDS011;30152;52.066;5.358;2023-04-08T13:00:45;15.82;;;6.57;;
44446;SDS011;30152;52.066;5.358;2023-04-08T13:03:11;12.93;;;6.50;;
44446;SDS011;30152;52.066;5.358;2023-04-08T13:05:39;15.90;;;7.60;;
44446;SDS011;30152;52.066;5.358;2023-04-08T13:08:06;14.55;;;7.07;;
44446;SDS011;30152;52.066;5.358;2023-04-08T13:10:32;13.48;;;6.78;;
44446;SDS011;30152;52.066;5.358;2023-04-08T13:12:58;12.20;;;6.05;;
44446;SDS011;30152;52.066;5.358;2023-04-08T13:15:24;11.50;;;6.10;;
44446;SDS011;30152;52.066;5.358;2023-04-08T13:17:50;14.43;;;7.15;;
44446;SDS011;30152;52.066;5.358;2023-04-08T13:20:16;13.98;;;6.50;;
44446;SDS011;30152;52.066;5.358;2023-04-08T13:22:42;13.57;;;7.10;;
44446;SDS011;30152;52.066;5.358;2023-04-08T13:25:08;13.90;;;7.40;;
44446;SDS011;30152;52.066;5.358;2023-04-08T13:27:34;14.43;;;6.75;;
44446;SDS011;30152;52.066;5.358;2023-04-08T13:30:00;12.38;;;6.43;;
44446;SDS011;30152;52.066;5.358;2023-04-08T13:32:26;14.88;;;6.32;;
44446;SDS011;30152;52.066;5.358;2023-04-08T13:34:52;14.38;;;7.10;;
44446;SDS011;30152;52.066;5.358;2023-04-08T13:37:18;12.60;;;6.32;;
44446;SDS011;30152;52.066;5.358;2023-04-08T13:39:44;13.18;;;6.45;;
44446;SDS011;30152;52.066;5.358;2023-04-08T13:42:10;10.93;;;5.78;;
44446;SDS011;30152;52.066;5.358;2023-04-08T13:44:36;11.98;;;6.60;;
44446;SDS011;30152;52.066;5.358;2023-04-08T13:47:02;14.40;;;7.20;;
44446;SDS011;30152;52.066;5.358;2023-04-08T13:49:28;11.23;;;5.57;;
44446;SDS011;30152;52.066;5.358;2023-04-08T13:51:54;11.93;;;6.00;;
44446;SDS011;30152;52.066;5.358;2023-04-08T13:54:20;10.07;;;6.13;;
44446;SDS011;30152;52.066;5.358;2023-04-08T13:56:46;10.82;;;6.03;;
44446;SDS011;30152;52.066;5.358;2023-04-08T13:59:12;13.40;;;6.97;;
44446;SDS011;30152;52.066;5.358;2023-04-08T14:01:38;11.95;;;5.82;;
44446;SDS011;30152;52.066;5.358;2023-04-08T14:04:04;9.68;;;5.68;;
44446;SDS011;30152;52.066;5.358;2023-04-08T14:06:30;12.55;;;5.82;;
44446;SDS011;30152;52.066;5.358;2023-04-08T14:08:56;10.68;;;6.30;;
44446;SDS011;30152;52.066;5.358;2023-04-08T14:11:22;11.60;;;6.32;;
44446;SDS011;30152;52.066;5.358;2023-04-08T14:13:48;11.85;;;5.88;;
44446;SDS011;30152;52.066;5.358;2023-04-08T14:16:14;9.07;;;5.45;;
44446;SDS011;30152;52.066;5.358;2023-04-08T14:18:40;10.32;;;5.97;;
44446;SDS011;30152;52.066;5.358;2023-04-08T14:21:06;10.32;;;5.68;;
44446;SDS011;30152;52.066;5.358;2023-04-08T14:23:32;10.68;;;6.35;;
44446;SDS011;30152;52.066;5.358;2023-04-08T14:25:58;12.10;;;6.20;;
44446;SDS011;30152;52.066;5.358;2023-04-08T14:28:25;12.45;;;6.88;;
44446;SDS011;30152;52.066;5.358;2023-04-08T14:30:51;11.20;;;7.13;;
44446;SDS011;30152;52.066;5.358;2023-04-08T14:33:17;13.70;;;6.78;;
44446;SDS011;30152;52.066;5.358;2023-04-08T14:35:43;11.88;;;6.65;;
44446;SDS011;30152;52.066;5.358;2023-04-08T14:38:09;14.73;;;6.78;;
44446;SDS011;30152;52.066;5.358;2023-04-08T14:40:35;12.32;;;6.90;;
44446;SDS011;30152;52.066;5.358;2023-04-08T14:43:01;11.35;;;6.88;;
44446;SDS011;30152;52.066;5.358;2023-04-08T14:45:27;11.18;;;6.20;;
44446;SDS011;30152;52.066;5.358;2023-04-08T14:47:53;11.82;;;6.15;;
44446;SDS011;30152;52.066;5.358;2023-04-08T14:50:19;11.90;;;5.90;;
44446;SDS011;30152;52.066;5.358;2023-04-08T14:52:45;9.20;;;5.00;;
44446;SDS011;30152;52.066;5.358;2023-04-08T14:55:12;12.15;;;6.05;;
44446;SDS011;30152;52.066;5.358;2023-04-08T14:57:38;11.38;;;6.22;;
44446;SDS011;30152;52.066;5.358;2023-04-08T15:00:04;11.85;;;6.28;;
44446;SDS011;30152;52.066;5.358;2023-04-08T15:02:31;12.13;;;6.82;;
44446;SDS011;30152;52.066;5.358;2023-04-08T15:04:57;11.82;;;6.90;;
44446;SDS011;30152;52.066;5.358;2023-04-08T15:07:23;14.57;;;6.15;;
44446;SDS011;30152;52.066;5.358;2023-04-08T15:09:49;11.15;;;6.32;;
44446;SDS011;30152;52.066;5.358;2023-04-08T15:12:15;12.80;;;6.25;;
44446;SDS011;30152;52.066;5.358;2023-04-08T15:14:41;9.63;;;5.90;;
44446;SDS011;30152;52.066;5.358;2023-04-08T15:17:07;9.88;;;5.63;;
44446;SDS011;30152;52.066;5.358;2023-04-08T15:19:34;11.15;;;6.13;;
44446;SDS011;30152;52.066;5.358;2023-04-08T15:22:00;8.52;;;4.82;;
44446;SDS011;30152;52.066;5.358;2023-04-08T15:24:26;9.18;;;4.97;;
44446;SDS011;30152;52.066;5.358;2023-04-08T15:26:51;10.23;;;5.82;;
44446;SDS011;30152;52.066;5.358;2023-04-08T15:29:17;8.82;;;5.22;;
44446;SDS011;30152;52.066;5.358;2023-04-08T15:31:43;11.55;;;5.47;;
44446;SDS011;30152;52.066;5.358;2023-04-08T15:34:09;10.95;;;5.82;;
44446;SDS011;30152;52.066;5.358;2023-04-08T15:36:35;13.48;;;6.85;;
44446;SDS011;30152;52.066;5.358;2023-04-08T15:39:01;10.55;;;6.55;;
44446;SDS011;30152;52.066;5.358;2023-04-08T15:41:27;11.57;;;6.53;;
44446;SDS011;30152;52.066;5.358;2023-04-08T15:43:53;11.80;;;6.82;;
44446;SDS011;30152;52.066;5.358;2023-04-08T15:46:20;12.93;;;7.13;;
44446;SDS011;30152;52.066;5.358;2023-04-08T15:48:46;14.02;;;7.40;;
44446;SDS011;30152;52.066;5.358;2023-04-08T15:51:12;12.65;;;6.32;;
44446;SDS011;30152;52.066;5.358;2023-04-08T15:53:38;13.10;;;6.93;;
44446;SDS011;30152;52.066;5.358;2023-04-08T15:56:04;13.52;;;7.40;;
44446;SDS011;30152;52.066;5.358;2023-04-08T15:58:31;11.55;;;7.03;;
44446;SDS011;30152;52.066;5.358;2023-04-08T16:00:57;10.85;;;6.68;;
44446;SDS011;30152;52.066;5.358;2023-04-08T16:03:23;11.27;;;7.13;;
44446;SDS011;30152;52.066;5.358;2023-04-08T16:05:49;12.57;;;7.55;;
44446;SDS011;30152;52.066;5.358;2023-04-08T16:08:15;13.23;;;7.85;;
44446;SDS011;30152;52.066;5.358;2023-04-08T16:10:42;10.88;;;7.30;;
44446;SDS011;30152;52.066;5.358;2023-04-08T16:13:07;11.20;;;6.72;;
44446;SDS011;30152;52.066;5.358;2023-04-08T16:15:34;12.65;;;6.45;;
44446;SDS011;30152;52.066;5.358;2023-04-08T16:18:01;12.38;;;7.03;;
44446;SDS011;30152;52.066;5.358;2023-04-08T16:20:27;14.20;;;7.60;;
44446;SDS011;30152;52.066;5.358;2023-04-08T16:22:53;13.32;;;7.57;;
44446;SDS011;30152;52.066;5.358;2023-04-08T16:25:19;13.18;;;7.80;;
44446;SDS011;30152;52.066;5.358;2023-04-08T16:27:45;17.73;;;7.70;;
44446;SDS011;30152;52.066;5.358;2023-04-08T16:30:12;13.73;;;7.00;;
44446;SDS011;30152;52.066;5.358;2023-04-08T16:32:38;14.02;;;7.38;;
44446;SDS011;30152;52.066;5.358;2023-04-08T16:35:04;13.50;;;7.78;;
44446;SDS011;30152;52.066;5.358;2023-04-08T16:37:31;13.07;;;7.70;;
44446;SDS011;30152;52.066;5.358;2023-04-08T16:39:57;15.45;;;7.47;;
44446;SDS011;30152;52.066;5.358;2023-04-08T16:42:24;14.57;;;7.05;;
44446;SDS011;30152;52.066;5.358;2023-04-08T16:44:56;13.25;;;7.13;;
44446;SDS011;30152;52.066;5.358;2023-04-08T16:47:23;14.07;;;6.97;;
44446;SDS011;30152;52.066;5.358;2023-04-08T16:49:52;13.90;;;7.53;;
44446;SDS011;30152;52.066;5.358;2023-04-08T16:52:18;16.45;;;8.23;;
44446;SDS011;30152;52.066;5.358;2023-04-08T16:54:44;19.67;;;8.30;;
44446;SDS011;30152;52.066;5.358;2023-04-08T16:57:10;11.70;;;6.55;;
44446;SDS011;30152;52.066;5.358;2023-04-08T16:59:36;17.33;;;9.50;;
44446;SDS011;30152;52.066;5.358;2023-04-08T17:02:02;17.33;;;9.60;;
44446;SDS011;30152;52.066;5.358;2023-04-08T17:04:28;17.75;;;8.88;;
44446;SDS011;30152;52.066;5.358;2023-04-08T17:06:54;15.98;;;8.55;;
44446;SDS011;30152;52.066;5.358;2023-04-08T17:09:21;15.45;;;8.50;;
44446;SDS011;30152;52.066;5.358;2023-04-08T17:11:47;15.50;;;8.32;;
44446;SDS011;30152;52.066;5.358;2023-04-08T17:14:12;15.45;;;7.72;;
44446;SDS011;30152;52.066;5.358;2023-04-08T17:16:38;16.33;;;8.10;;
44446;SDS011;30152;52.066;5.358;2023-04-08T17:19:04;15.27;;;8.50;;
44446;SDS011;30152;52.066;5.358;2023-04-08T17:21:30;13.98;;;8.40;;
44446;SDS011;30152;52.066;5.358;2023-04-08T17:23:56;15.93;;;9.00;;
44446;SDS011;30152;52.066;5.358;2023-04-08T17:26:22;15.55;;;8.85;;
44446;SDS011;30152;52.066;5.358;2023-04-08T17:28:48;16.17;;;8.77;;
44446;SDS011;30152;52.066;5.358;2023-04-08T17:31:14;14.32;;;8.55;;
44446;SDS011;30152;52.066;5.358;2023-04-08T17:33:40;18.50;;;9.48;;
44446;SDS011;30152;52.066;5.358;2023-04-08T17:36:06;19.35;;;10.25;;
44446;SDS011;30152;52.066;5.358;2023-04-08T17:38:32;18.73;;;9.43;;
44446;SDS011;30152;52.066;5.358;2023-04-08T17:41:03;16.42;;;9.63;;
44446;SDS011;30152;52.066;5.358;2023-04-08T17:43:29;19.27;;;10.23;;
44446;SDS011;30152;52.066;5.358;2023-04-08T17:46:01;20.98;;;11.55;;
44446;SDS011;30152;52.066;5.358;2023-04-08T17:48:27;19.35;;;12.40;;
44446;SDS011;30152;52.066;5.358;2023-04-08T17:50:59;20.42;;;12.52;;
44446;SDS011;30152;52.066;5.358;2023-04-08T17:53:25;20.77;;;13.23;;
44446;SDS011;30152;52.066;5.358;2023-04-08T17:55:51;22.02;;;12.88;;
44446;SDS011;30152;52.066;5.358;2023-04-08T17:58:18;20.15;;;12.52;;
44446;SDS011;30152;52.066;5.358;2023-04-08T18:00:44;21.60;;;12.40;;
44446;SDS011;30152;52.066;5.358;2023-04-08T18:03:11;22.00;;;13.68;;
44446;SDS011;30152;52.066;5.358;2023-04-08T18:05:37;25.63;;;14.18;;
44446;SDS011;30152;52.066;5.358;2023-04-08T18:08:03;23.65;;;14.65;;
44446;SDS011;30152;52.066;5.358;2023-04-08T18:10:29;22.48;;;13.80;;
44446;SDS011;30152;52.066;5.358;2023-04-08T18:12:55;23.00;;;14.00;;
44446;SDS011;30152;52.066;5.358;2023-04-08T18:15:21;24.20;;;14.85;;
44446;SDS011;30152;52.066;5.358;2023-04-08T18:17:47;28.55;;;16.10;;
44446;SDS011;30152;52.066;5.358;2023-04-08T18:20:13;24.35;;;15.77;;
44446;SDS011;30152;52.066;5.358;2023-04-08T18:22:39;25.17;;;14.75;;
44446;SDS011;30152;52.066;5.358;2023-04-08T18:25:05;24.35;;;15.13;;
44446;SDS011;30152;52.066;5.358;2023-04-08T18:27:31;24.15;;;15.25;;
44446;SDS011;30152;52.066;5.358;2023-04-08T18:29:57;26.45;;;15.43;;
44446;SDS011;30152;52.066;5.358;2023-04-08T18:32:23;26.92;;;15.68;;
44446;SDS011;30152;52.066;5.358;2023-04-08T18:34:50;28.23;;;16.85;;
44446;SDS011;30152;52.066;5.358;2023-04-08T18:37:16;24.92;;;16.40;;
44446;SDS011;30152;52.066;5.358;2023-04-08T18:39:44;28.02;;;16.42;;
44446;SDS011;30152;52.066;5.358;2023-04-08T18:42:10;27.48;;;15.75;;
44446;SDS011;30152;52.066;5.358;2023-04-08T18:44:36;27.27;;;15.88;;
44446;SDS011;30152;52.066;5.358;2023-04-08T18:47:02;29.80;;;16.75;;
44446;SDS011;30152;52.066;5.358;2023-04-08T18:49:28;28.17;;;16.80;;
44446;SDS011;30152;52.066;5.358;2023-04-08T18:51:55;29.30;;;17.15;;
44446;SDS011;30152;52.066;5.358;2023-04-08T18:54:22;26.88;;;16.85;;
44446;SDS011;30152;52.066;5.358;2023-04-08T18:56:48;28.90;;;16.40;;
44446;SDS011;30152;52.066;5.358;2023-04-08T18:59:14;28.38;;;17.08;;
44446;SDS011;30152;52.066;5.358;2023-04-08T19:01:40;27.90;;;16.80;;
44446;SDS011;30152;52.066;5.358;2023-04-08T19:04:08;29.73;;;16.73;;
44446;SDS011;30152;52.066;5.358;2023-04-08T19:06:34;27.70;;;17.60;;
44446;SDS011;30152;52.066;5.358;2023-04-08T19:09:02;28.85;;;16.23;;
44446;SDS011;30152;52.066;5.358;2023-04-08T19:11:27;27.45;;;15.73;;
44446;SDS011;30152;52.066;5.358;2023-04-08T19:13:56;30.83;;;17.55;;
44446;SDS011;30152;52.066;5.358;2023-04-08T19:16:22;28.73;;;17.13;;
44446;SDS011;30152;52.066;5.358;2023-04-08T19:18:48;28.13;;;16.85;;
44446;SDS011;30152;52.066;5.358;2023-04-08T19:21:14;29.15;;;17.92;;
44446;SDS011;30152;52.066;5.358;2023-04-08T19:23:40;30.25;;;17.75;;
44446;SDS011;30152;52.066;5.358;2023-04-08T19:26:06;29.23;;;16.02;;
44446;SDS011;30152;52.066;5.358;2023-04-08T19:28:32;27.88;;;17.13;;
44446;SDS011;30152;52.066;5.358;2023-04-08T19:30:59;30.15;;;17.77;;
44446;SDS011;30152;52.066;5.358;2023-04-08T19:33:25;31.85;;;18.17;;
44446;SDS011;30152;52.066;5.358;2023-04-08T19:35:54;35.03;;;18.38;;
44446;SDS011;30152;52.066;5.358;2023-04-08T19:38:20;29.20;;;17.45;;
44446;SDS011;30152;52.066;5.358;2023-04-08T19:40:46;28.98;;;17.50;;
44446;SDS011;30152;52.066;5.358;2023-04-08T19:43:13;30.55;;;18.90;;
44446;SDS011;30152;52.066;5.358;2023-04-08T19:45:39;30.48;;;17.50;;
44446;SDS011;30152;52.066;5.358;2023-04-08T19:48:05;30.67;;;17.27;;
44446;SDS011;30152;52.066;5.358;2023-04-08T19:50:31;28.65;;;16.73;;
44446;SDS011;30152;52.066;5.358;2023-04-08T19:52:57;30.08;;;17.60;;
44446;SDS011;30152;52.066;5.358;2023-04-08T19:55:23;28.73;;;17.90;;
44446;SDS011;30152;52.066;5.358;2023-04-08T19:57:49;33.05;;;18.15;;
44446;SDS011;30152;52.066;5.358;2023-04-08T20:00:15;28.65;;;17.40;;
44446;SDS011;30152;52.066;5.358;2023-04-08T20:02:41;33.20;;;19.35;;
44446;SDS011;30152;52.066;5.358;2023-04-08T20:05:07;32.47;;;18.65;;
44446;SDS011;30152;52.066;5.358;2023-04-08T20:07:39;30.60;;;18.17;;
44446;SDS011;30152;52.066;5.358;2023-04-08T20:10:05;29.80;;;18.25;;
44446;SDS011;30152;52.066;5.358;2023-04-08T20:12:31;29.85;;;17.65;;
44446;SDS011;30152;52.066;5.358;2023-04-08T20:14:57;31.33;;;19.10;;
44446;SDS011;30152;52.066;5.358;2023-04-08T20:17:23;34.78;;;20.17;;
44446;SDS011;30152;52.066;5.358;2023-04-08T20:19:50;29.98;;;17.60;;
44446;SDS011;30152;52.066;5.358;2023-04-08T20:22:16;30.63;;;18.92;;
44446;SDS011;30152;52.066;5.358;2023-04-08T20:24:42;35.10;;;19.40;;
44446;SDS011;30152;52.066;5.358;2023-04-08T20:27:08;32.80;;;19.92;;
44446;SDS011;30152;52.066;5.358;2023-04-08T20:29:34;35.58;;;21.45;;
44446;SDS011;30152;52.066;5.358;2023-04-08T20:32:00;37.08;;;20.60;;
44446;SDS011;30152;52.066;5.358;2023-04-08T20:34:26;35.60;;;21.98;;
44446;SDS011;30152;52.066;5.358;2023-04-08T20:36:52;34.95;;;20.08;;
44446;SDS011;30152;52.066;5.358;2023-04-08T20:39:18;32.92;;;20.25;;
44446;SDS011;30152;52.066;5.358;2023-04-08T20:41:46;32.83;;;20.20;;
44446;SDS011;30152;52.066;5.358;2023-04-08T20:44:12;33.25;;;21.17;;
44446;SDS011;30152;52.066;5.358;2023-04-08T20:46:38;34.40;;;21.92;;
44446;SDS011;30152;52.066;5.358;2023-04-08T20:49:04;35.33;;;21.27;;
44446;SDS011;30152;52.066;5.358;2023-04-08T20:51:30;35.28;;;20.98;;
44446;SDS011;30152;52.066;5.358;2023-04-08T20:53:57;31.38;;;18.85;;
44446;SDS011;30152;52.066;5.358;2023-04-08T20:56:23;36.67;;;19.35;;
44446;SDS011;30152;52.066;5.358;2023-04-08T20:58:50;32.20;;;18.80;;
